메인 페이지
METAR-TAF:

METAR-TAF

공항 :

자발푸르, 인도

위도: 23-10-54N, 경도: 80-03-31E, 고도: 495m

현재 날씨관측

예보는 14 시간 1분 전, 12:00시(UTC)에 발표되었습니다.
남서6kt, 순간 최대 풍속 16kt
온도 34°C
습도 53%
기압 1001 hPa
시정: 5000m
고도 2500ft 상공 구름 조금
고도 10000ft 상공 구름 보통
연무

METAR: VAJB 241200Z 23006G16KT 5000 HZ FEW025 SCT100 34/23 Q1001

시각: 07:31 (02:01 UTC)


TAF: 누락

4,000개 이상의 공항 관측 자료 및 예보 (METAR 및 TAF 보고).

지도상에서 검색 가능한 기상관측소가 노란 점과 빨간 점으로 표시되어 있습니다.

기상관측소 명을 보려면 표시 위로 마우스를 이동하세요.

날씨 관측과 예보를 보려면 클릭하세요.

지도 변경 : 확대하려면 엑스 표시가 있는 녹색 버튼, 축소하려면 빼기 표시가 있는 녹색 버튼, 다음 페이지의 지도를 보려면 녹색 화살표를 클릭하세요.


METAR-TAF: